Time;durP1;ratioP1;P1;durP2;ratioP2;P2;SDS_P1;SDS_P2;PMS_P1;PMS_P2;Temp;Humidity;BMP_temperature;BMP_pressure;BME280_temperature;BME280_humidity;BME280_pressure;Samples;Min_cycle;Max_cycle;Signal;HPM_P1;HPM_P2
2023/06/22 00:00:32;;;;;;;6.85;4.72;;;;;;;21.58;75.35;100704.78;5074793;28;20051;-74
2023/06/22 00:03:35;;;;;;;10.43;5.50;;;;;;;21.43;76.48;100706.25;5074692;28;20128;-74
2023/06/22 00:06:38;;;;;;;6.05;4.72;;;;;;;21.55;75.74;100710.41;5074617;28;20043;-75
2023/06/22 00:09:41;;;;;;;6.45;5.18;;;;;;;21.43;76.60;100716.88;5074560;28;20111;-74
2023/06/22 00:12:45;;;;;;;5.70;4.82;;;;;;;21.50;76.81;100719.78;5074606;28;20055;-74
2023/06/22 00:15:48;;;;;;;9.55;4.85;;;;;;;21.59;76.49;100717.09;5074395;28;20079;-74
2023/06/22 00:18:52;;;;;;;5.43;4.85;;;;;;;21.57;76.87;100740.38;5074458;28;20057;-74
2023/06/22 00:21:55;;;;;;;6.18;5.47;;;;;;;21.51;78.28;100740.09;5074403;28;20127;-75
2023/06/22 00:24:58;;;;;;;7.75;5.65;;;;;;;21.64;77.96;100750.41;5074382;28;20035;-75
2023/06/22 00:28:03;;;;;;;7.30;5.50;;;;;;;21.57;78.77;100753.66;5074203;28;20058;-75
2023/06/22 00:31:07;;;;;;;6.18;5.32;;;;;;;21.42;80.00;100757.78;5074314;28;20050;-75
2023/06/22 00:34:10;;;;;;;5.82;5.22;;;;;;;21.42;80.62;100756.94;5074163;28;20104;-74
2023/06/22 00:37:13;;;;;;;6.57;5.10;;;;;;;21.38;80.72;100759.06;5074179;28;20113;-74
2023/06/22 00:40:21;;;;;;;6.28;5.05;;;;;;;21.34;81.06;100761.09;5073191;28;20190;-74
2023/06/22 00:43:24;;;;;;;7.32;5.18;;;;;;;21.26;81.54;100753.03;5074008;28;20426;-74
2023/06/22 00:46:28;;;;;;;5.63;5.13;;;;;;;21.20;82.14;100758.09;5073911;28;20525;-74
2023/06/22 00:49:31;;;;;;;6.32;5.72;;;;;;;21.18;83.13;100765.34;5073967;28;20063;-74
2023/06/22 00:52:35;;;;;;;6.05;5.40;;;;;;;21.20;83.49;100768.72;5073712;28;20101;-74
2023/06/22 00:55:46;;;;;;;6.72;5.10;;;;;;;21.31;82.85;100771.19;5073696;28;20050;-74
2023/06/22 00:58:52;;;;;;;8.70;4.90;;;;;;;21.36;82.81;100784.94;5073675;28;20051;-75
2023/06/22 01:01:56;;;;;;;9.25;5.88;;;;;;;21.26;83.42;100778.78;5072946;28;20063;-74
2023/06/22 01:04:59;;;;;;;8.48;5.63;;;;;;;21.13;84.34;100779.91;5072575;28;20044;-75
2023/06/22 01:08:19;;;;;;;7.80;5.43;;;;;;;21.08;84.91;100786.63;5073459;28;20046;-75
2023/06/22 01:11:39;;;;;;;7.95;6.10;;;;;;;21.09;84.97;100777.66;5073470;28;20043;-75
2023/06/22 01:14:46;;;;;;;6.82;6.13;;;;;;;21.08;85.54;100786.63;5072858;28;20055;-75
2023/06/22 01:17:52;;;;;;;6.72;5.22;;;;;;;21.01;85.96;100773.06;5072645;28;20413;-75
2023/06/22 01:20:59;;;;;;;7.10;5.93;;;;;;;20.97;86.60;100755.75;5073274;28;20039;-74
2023/06/22 01:24:27;;;;;;;9.68;5.60;;;;;;;20.95;87.23;100749.72;5073426;28;20105;-74
2023/06/22 01:27:55;;;;;;;7.18;5.57;;;;;;;20.97;87.41;100747.75;5073249;28;20048;-74
2023/06/22 01:31:05;;;;;;;9.38;5.00;;;;;;;20.94;86.69;100748.03;5073291;28;20505;-75
2023/06/22 01:34:11;;;;;;;5.60;4.97;;;;;;;20.98;86.85;100743.28;5072659;28;20140;-75
2023/06/22 01:37:15;;;;;;;6.05;5.45;;;;;;;21.00;87.48;100744.00;5072231;28;20521;-74
2023/06/22 01:40:20;;;;;;;7.63;5.47;;;;;;;20.92;88.21;100757.13;5072869;28;20048;-75
2023/06/22 01:43:26;;;;;;;8.43;5.82;;;;;;;20.89;87.97;100756.44;5073064;28;20079;-74
2023/06/22 01:46:29;;;;;;;5.75;5.10;;;;;;;21.05;87.35;100747.88;5072764;28;20047;-74
2023/06/22 01:49:33;;;;;;;6.75;6.03;;;;;;;20.89;88.63;100739.66;5072729;28;20206;-75
2023/06/22 01:52:36;;;;;;;8.10;6.32;;;;;;;20.79;89.59;100736.16;5072989;28;20139;-75
2023/06/22 01:55:39;;;;;;;6.60;5.90;;;;;;;20.65;89.97;100732.97;5072678;28;20608;-74
2023/06/22 01:58:50;;;;;;;6.60;5.97;;;;;;;20.84;88.84;100710.03;5072516;28;20063;-74
2023/06/22 02:02:08;;;;;;;6.07;5.47;;;;;;;20.93;87.79;100697.66;5071726;28;20128;-74
2023/06/22 02:05:17;;;;;;;9.73;5.53;;;;;;;20.80;88.87;100692.66;5072403;28;20047;-76
2023/06/22 02:08:23;;;;;;;7.72;6.15;;;;;;;20.70;89.68;100702.47;5072399;28;20126;-76
2023/06/22 02:11:30;;;;;;;6.47;5.88;;;;;;;20.69;89.42;100714.91;5072493;28;20047;-75
2023/06/22 02:14:35;;;;;;;7.13;6.07;;;;;;;20.56;90.60;100739.09;5072462;28;20047;-75
2023/06/22 02:17:38;;;;;;;8.45;6.32;;;;;;;20.74;89.86;100746.38;5071817;28;20067;-75
2023/06/22 02:20:41;;;;;;;6.80;5.75;;;;;;;20.74;89.84;100746.38;5071473;28;20047;-75
2023/06/22 02:23:46;;;;;;;6.65;5.80;;;;;;;20.78;89.61;100732.69;5072268;28;20089;-74
2023/06/22 02:26:49;;;;;;;8.98;6.00;;;;;;;20.70;90.13;100744.97;5071362;28;20043;-74
2023/06/22 02:29:52;;;;;;;9.77;6.07;;;;;;;20.69;91.19;100754.78;5071270;28;20170;-74
2023/06/22 02:32:58;;;;;;;9.20;6.10;;;;;;;20.76;90.63;100757.72;5072202;28;20124;-74
2023/06/22 02:36:05;;;;;;;7.65;6.00;;;;;;;20.82;90.67;100747.34;5071216;28;20063;-74
2023/06/22 02:39:07;;;;;;;6.85;6.07;;;;;;;20.83;91.04;100730.41;5071038;28;20146;-74
2023/06/22 02:42:11;;;;;;;7.05;6.35;;;;;;;20.60;92.18;100713.09;5071452;28;20517;-74
2023/06/22 02:45:14;;;;;;;12.52;6.97;;;;;;;20.47;93.24;100697.41;5075101;28;20101;-74
2023/06/22 02:48:20;;;;;;;8.98;5.95;;;;;;;20.46;93.44;100700.22;5075246;28;20544;-74
2023/06/22 02:51:23;;;;;;;7.22;5.55;;;;;;;20.48;93.39;100708.88;5076117;28;20129;-74
2023/06/22 02:54:27;;;;;;;7.57;6.25;;;;;;;20.38;94.46;100699.09;5075310;28;20042;-74
2023/06/22 02:57:31;;;;;;;8.13;6.53;;;;;;;20.38;94.30;100693.78;5075081;28;20086;-74
2023/06/22 03:00:34;;;;;;;10.82;6.13;;;;;;;20.39;94.09;100686.66;5075217;28;20405;-75
2023/06/22 03:03:43;;;;;;;8.98;6.10;;;;;;;20.32;94.52;100688.19;5063644;28;20082;-75
2023/06/22 03:06:51;;;;;;;6.93;6.20;;;;;;;20.32;94.32;100688.19;5074916;28;20105;-75
2023/06/22 03:09:54;;;;;;;7.72;6.40;;;;;;;20.26;94.34;100678.97;5074951;28;20120;-75
2023/06/22 03:12:58;;;;;;;10.45;6.55;;;;;;;20.26;94.72;100688.72;5074759;28;20234;-76
2023/06/22 03:16:11;;;;;;;8.15;5.97;;;;;;;20.29;94.65;100691.94;5074430;28;20563;-77
2023/06/22 03:19:16;;;;;;;9.45;6.43;;;;;;;20.50;93.27;100696.31;5075831;28;20146;-78
2023/06/22 03:22:20;;;;;;;7.28;6.13;;;;;;;20.57;92.80;100697.44;5074854;28;20055;-79
2023/06/22 03:25:24;;;;;;;7.00;6.30;;;;;;;20.37;93.69;100702.72;5075681;28;20043;-74
2023/06/22 03:28:27;;;;;;;7.63;6.82;;;;;;;20.35;94.34;100698.53;5075317;28;20055;-74
2023/06/22 03:31:31;;;;;;;7.28;6.57;;;;;;;20.30;94.54;100695.47;5075186;28;20043;-74
2023/06/22 03:34:38;;;;;;;9.60;6.82;;;;;;;20.19;95.08;100699.91;5074395;28;20563;-74
2023/06/22 03:37:41;;;;;;;7.28;6.55;;;;;;;20.25;94.92;100705.66;5074120;28;20070;-75
2023/06/22 03:40:45;;;;;;;8.77;7.30;;;;;;;20.39;94.64;100695.47;5074219;28;20046;-76
2023/06/22 03:43:48;;;;;;;12.07;6.18;;;;;;;20.43;93.42;100696.03;5074127;28;20044;-74
2023/06/22 03:46:52;;;;;;;21.25;8.32;;;;;;;20.40;93.49;100697.13;5073939;28;20043;-74
2023/06/22 03:49:57;;;;;;;7.88;6.13;;;;;;;20.18;94.42;100686.78;5074925;28;20532;-77
2023/06/22 03:53:00;;;;;;;9.05;6.97;;;;;;;20.15;95.64;100698.50;5074054;28;20123;-74
2023/06/22 03:56:04;;;;;;;7.93;7.13;;;;;;;20.27;95.60;100690.44;5074303;28;20457;-75
2023/06/22 03:59:07;;;;;;;7.68;6.70;;;;;;;20.31;94.88;100699.78;5074777;28;20047;-76
2023/06/22 04:02:10;;;;;;;12.55;7.03;;;;;;;20.10;95.67;100695.44;5074905;28;20102;-76
2023/06/22 04:05:14;;;;;;;8.23;7.03;;;;;;;20.07;96.54;100693.06;5073770;28;20047;-77
2023/06/22 04:08:18;;;;;;;12.63;7.80;;;;;;;20.02;97.20;100695.28;5074468;28;20505;-80
2023/06/22 04:11:27;;;;;;;8.82;6.97;;;;;;;20.01;97.23;100698.91;5074883;28;20090;-73
2023/06/22 04:14:30;;;;;;;8.32;6.93;;;;;;;20.03;97.05;100710.22;5074773;28;20448;-77
2023/06/22 04:17:34;;;;;;;10.00;7.45;;;;;;;20.10;96.38;100713.16;5074213;28;20047;-72
2023/06/22 04:20:37;;;;;;;10.98;7.68;;;;;;;20.06;96.92;100717.91;5074670;28;20055;-74
2023/06/22 04:24:30;;;;;;;8.00;6.47;;;;;;;20.28;95.51;100714.19;5074592;28;20096;-76
2023/06/22 04:27:39;;;;;;;8.35;7.00;;;;;;;20.29;95.78;100718.50;5073549;28;20434;-74
2023/06/22 04:30:47;;;;;;;10.80;7.20;;;;;;;20.20;95.95;100706.91;5074045;28;20051;-76
2023/06/22 04:33:51;;;;;;;8.40;6.90;;;;;;;20.13;96.96;100703.13;5074298;28;20464;-76
2023/06/22 04:36:54;;;;;;;9.63;7.60;;;;;;;20.09;97.56;100701.72;5073518;28;20047;-81
2023/06/22 04:39:58;;;;;;;9.63;8.20;;;;;;;20.09;98.06;100701.72;5071909;28;20055;-76
2023/06/22 04:43:02;;;;;;;13.05;7.18;;;;;;;20.10;97.74;100695.44;5071357;28;20575;-76
2023/06/22 04:46:06;;;;;;;9.95;7.65;;;;;;;20.10;97.55;100692.78;5070360;28;20140;-76
2023/06/22 04:49:09;;;;;;;8.82;7.93;;;;;;;20.13;97.55;100700.47;5071777;28;20143;-76
2023/06/22 04:52:20;;;;;;;11.45;8.30;;;;;;;20.27;97.36;100701.06;5070997;28;20047;-75
2023/06/22 04:55:25;;;;;;;8.95;8.10;;;;;;;20.17;97.60;100695.72;5071863;28;20044;-73
2023/06/22 04:58:32;;;;;;;8.13;7.30;;;;;;;20.08;98.19;100692.09;5072245;28;20051;-75
2023/06/22 05:01:35;;;;;;;8.65;7.82;;;;;;;20.17;98.31;100693.91;5072547;28;20101;-74
2023/06/22 05:04:39;;;;;;;9.73;8.45;;;;;;;20.16;98.22;100689.56;5073264;28;20090;-74
2023/06/22 05:07:44;;;;;;;8.93;8.07;;;;;;;20.22;97.32;100693.47;5072427;28;20043;-74
2023/06/22 05:10:49;;;;;;;12.27;8.65;;;;;;;20.19;97.97;100683.97;5073509;28;20048;-73
2023/06/22 05:13:52;;;;;;;9.68;8.20;;;;;;;20.25;98.09;100681.75;5072677;28;20040;-73
2023/06/22 05:16:58;;;;;;;9.40;8.13;;;;;;;20.26;98.19;100681.63;5073457;28;20054;-73
2023/06/22 05:20:06;;;;;;;8.43;7.50;;;;;;;20.33;97.89;100687.22;5072871;28;20500;-74
2023/06/22 05:23:09;;;;;;;10.68;8.13;;;;;;;20.37;98.46;100686.78;5073613;28;20043;-74
2023/06/22 05:26:14;;;;;;;10.05;7.95;;;;;;;20.34;98.35;100680.91;5073345;28;20047;-74
2023/06/22 05:29:17;;;;;;;9.18;8.27;;;;;;;20.48;96.88;100677.00;5073003;28;20051;-75
2023/06/22 05:32:21;;;;;;;8.80;7.53;;;;;;;20.58;94.94;100673.41;5072376;28;20113;-75
2023/06/22 05:35:24;;;;;;;7.55;6.63;;;;;;;20.64;93.85;100672.84;5072697;28;20039;-74
2023/06/22 05:38:27;;;;;;;9.18;7.05;;;;;;;20.74;93.02;100664.00;5072372;28;20107;-74
2023/06/22 05:41:31;;;;;;;8.05;6.93;;;;;;;20.80;91.40;100666.91;5073136;28;20062;-73
2023/06/22 05:44:34;;;;;;;8.75;7.15;;;;;;;20.78;91.50;100674.22;5073193;28;20047;-75
2023/06/22 05:47:41;;;;;;;10.23;8.15;;;;;;;20.78;92.47;100674.22;5073209;28;20405;-72
2023/06/22 05:50:45;;;;;;;11.02;7.88;;;;;;;20.74;92.91;100666.66;5073289;28;20093;-74
2023/06/22 05:53:58;;;;;;;9.07;8.18;;;;;;;20.71;92.78;100665.16;5073095;28;20039;-74
2023/06/22 05:57:21;;;;;;;9.73;8.52;;;;;;;20.56;93.76;100664.72;5073112;28;20615;-75
2023/06/22 06:00:27;;;;;;;9.82;7.78;;;;;;;20.77;91.81;100675.19;5073238;28;20131;-76
2023/06/22 06:03:40;;;;;;;11.60;8.07;;;;;;;20.87;90.80;100676.00;5073042;28;20075;-74
2023/06/22 06:06:46;;;;;;;9.65;8.65;;;;;;;20.95;91.69;100674.47;5072895;28;20047;-74
2023/06/22 06:09:50;;;;;;;13.45;8.00;;;;;;;21.02;92.10;100664.91;5072201;28;20118;-75
2023/06/22 06:12:57;;;;;;;9.23;7.78;;;;;;;21.06;91.86;100666.31;5072762;28;20451;-75
2023/06/22 06:16:00;;;;;;;10.02;7.78;;;;;;;21.07;90.67;100679.47;5072274;28;20047;-75
2023/06/22 06:19:07;;;;;;;10.25;8.25;;;;;;;21.21;89.34;100675.47;5072264;28;20106;-75
2023/06/22 06:22:12;;;;;;;13.10;8.68;;;;;;;21.31;90.34;100678.09;5072828;28;20410;-77
2023/06/22 06:25:16;;;;;;;8.95;8.13;;;;;;;21.38;90.01;100681.91;5072464;28;20102;-70
2023/06/22 06:28:19;;;;;;;10.70;8.45;;;;;;;21.45;88.62;100677.69;5072324;28;20040;-74
2023/06/22 06:31:23;;;;;;;9.40;8.35;;;;;;;21.60;88.88;100670.03;5072490;28;20051;-74
2023/06/22 06:34:27;;;;;;;12.50;8.02;;;;;;;21.71;88.41;100669.00;5072201;28;20083;-75
2023/06/22 06:37:30;;;;;;;8.88;8.00;;;;;;;21.72;86.50;100676.00;5072210;28;20052;-76
2023/06/22 06:40:41;;;;;;;11.50;8.52;;;;;;;21.80;85.54;100673.44;5071671;28;20052;-81
2023/06/22 06:43:47;;;;;;;14.25;8.70;;;;;;;21.87;87.05;100671.84;5072678;28;20174;-80
2023/06/22 06:46:54;;;;;;;11.70;8.82;;;;;;;21.93;85.70;100655.28;5071974;28;20540;-83
2023/06/22 06:49:58;;;;;;;9.55;8.60;;;;;;;21.97;84.89;100655.81;5081962;28;20567;-77
2023/06/22 06:53:01;;;;;;;8.93;8.13;;;;;;;22.03;84.27;100657.88;5070306;28;20142;-79
2023/06/22 06:56:12;;;;;;;8.48;7.68;;;;;;;22.11;84.75;100649.94;5070598;28;20094;-87
2023/06/22 06:59:16;;;;;;;12.35;9.05;;;;;;;22.17;83.34;100648.53;5069811;28;20094;-77
2023/06/22 07:02:20;;;;;;;11.32;7.80;;;;;;;22.22;83.38;100633.78;5069901;28;20047;-79
2023/06/22 07:05:23;;;;;;;11.60;9.02;;;;;;;22.27;83.35;100635.97;5069829;28;20194;-84
2023/06/22 07:08:26;;;;;;;9.82;8.82;;;;;;;22.43;83.20;100645.94;5069804;28;20063;-85
2023/06/22 07:11:30;;;;;;;9.63;8.10;;;;;;;22.53;82.50;100652.03;5071685;28;20113;-84
2023/06/22 07:14:37;;;;;;;10.15;8.68;;;;;;;22.66;81.93;100640.97;5071736;28;20044;-84
2023/06/22 07:17:42;;;;;;;11.00;8.45;;;;;;;22.71;81.34;100644.81;5071844;28;20048;-83
2023/06/22 07:20:46;;;;;;;10.68;9.10;;;;;;;22.76;80.43;100644.34;5071830;28;20091;-75
2023/06/22 07:23:50;;;;;;;11.05;8.77;;;;;;;22.92;80.02;100647.13;5071631;28;20068;-81
2023/06/22 07:26:54;;;;;;;9.95;8.63;;;;;;;22.97;80.31;100636.00;5071959;28;20464;-79
2023/06/22 07:29:57;;;;;;;9.27;8.10;;;;;;;22.97;79.14;100628.88;5071481;28;20098;-82
2023/06/22 07:33:06;;;;;;;9.48;8.18;;;;;;;23.10;78.97;100632.91;5075505;28;20051;-83
2023/06/22 07:36:09;;;;;;;8.38;7.57;;;;;;;23.18;78.42;100627.63;5075432;28;20035;-80
2023/06/22 07:43:39;;;;;;;11.07;8.00;;;;;;;23.25;78.02;100598.47;5075291;28;20047;-82
2023/06/22 07:46:49;;;;;;;10.35;7.70;;;;;;;23.32;77.50;100594.16;5075114;28;20094;-84
2023/06/22 07:49:54;;;;;;;11.40;7.63;;;;;;;23.42;77.96;100593.06;5075196;28;20039;-82
2023/06/22 07:53:01;;;;;;;8.90;7.80;;;;;;;23.48;76.73;100588.88;5074988;28;20101;-80
2023/06/22 07:56:06;;;;;;;9.20;8.20;;;;;;;23.58;76.82;100583.41;5074913;28;20418;-82
2023/06/22 07:59:12;;;;;;;11.50;7.80;;;;;;;23.69;75.92;100588.47;5074956;28;20044;-82
2023/06/22 08:02:17;;;;;;;9.13;7.45;;;;;;;23.78;75.64;100581.31;5074793;28;20109;-82
2023/06/22 08:05:21;;;;;;;10.45;8.73;;;;;;;23.72;75.24;100581.97;5075039;28;20058;-82
2023/06/22 08:08:26;;;;;;;9.13;7.47;;;;;;;23.86;74.60;100559.97;5074251;28;20126;-76
2023/06/22 08:11:29;;;;;;;8.27;7.38;;;;;;;24.00;74.73;100551.31;5074609;28;20098;-74
2023/06/22 08:14:39;;;;;;;9.30;7.85;;;;;;;24.04;74.23;100544.63;5074481;28;20056;-78
2023/06/22 08:17:44;;;;;;;14.32;9.52;;;;;;;24.03;73.33;100547.47;5074899;28;20040;-77
2023/06/22 08:20:47;;;;;;;9.18;7.05;;;;;;;24.07;72.85;100543.44;5072980;28;20098;-75
2023/06/22 08:23:51;;;;;;;8.65;7.22;;;;;;;24.24;72.60;100537.09;5073890;28;20109;-76
2023/06/22 08:26:54;;;;;;;8.70;7.50;;;;;;;24.33;72.54;100529.91;5073816;28;20051;-76
2023/06/22 08:29:59;;;;;;;9.40;7.22;;;;;;;24.46;72.54;100545.44;5072642;28;20137;-76
2023/06/22 08:33:03;;;;;;;9.95;7.32;;;;;;;24.50;71.52;100530.72;5073745;28;20063;-77
2023/06/22 08:36:08;;;;;;;10.27;8.35;;;;;;;24.65;72.25;100523.66;5074159;28;20559;-78
2023/06/22 08:39:11;;;;;;;8.15;7.18;;;;;;;24.78;71.56;100523.97;5073988;28;20101;-77
2023/06/22 08:42:14;;;;;;;11.13;8.73;;;;;;;24.91;71.81;100518.06;5073886;28;20075;-78
2023/06/22 08:45:18;;;;;;;9.57;7.13;;;;;;;25.00;71.46;100506.31;5074043;28;20038;-77
2023/06/22 08:48:21;;;;;;;12.60;7.32;;;;;;;25.09;70.96;100512.47;5074193;28;20059;-74
2023/06/22 08:51:25;;;;;;;13.55;7.47;;;;;;;25.18;70.05;100515.97;5074170;28;20508;-76
2023/06/22 08:54:28;;;;;;;8.48;7.63;;;;;;;25.25;70.13;100512.41;5073845;28;20101;-74
2023/06/22 08:57:32;;;;;;;8.73;7.20;;;;;;;25.31;69.57;100504.69;5073763;28;20488;-73
2023/06/22 09:00:35;;;;;;;8.80;7.30;;;;;;;25.29;69.59;100488.81;5073654;28;20052;-77
2023/06/22 09:03:38;;;;;;;8.27;7.43;;;;;;;25.37;69.96;100480.72;5073755;28;20105;-81
2023/06/22 09:06:45;;;;;;;10.70;8.25;;;;;;;25.42;69.05;100477.50;5073482;28;20039;-79
2023/06/22 09:09:49;;;;;;;9.32;7.80;;;;;;;25.46;69.09;100477.00;5073595;28;20047;-79
2023/06/22 09:12:52;;;;;;;10.50;8.07;;;;;;;25.54;67.85;100478.75;5073378;28;20102;-79
2023/06/22 09:15:55;;;;;;;7.90;7.05;;;;;;;25.66;68.30;100458.59;5073338;28;20047;-84
2023/06/22 09:18:58;;;;;;;8.65;7.70;;;;;;;25.73;67.94;100437.28;5073267;28;20058;-86
2023/06/22 09:22:03;;;;;;;9.00;7.68;;;;;;;25.84;67.02;100433.34;5073622;28;20055;-84
2023/06/22 09:25:07;;;;;;;8.30;7.50;;;;;;;25.90;65.96;100428.09;5073405;28;20097;-82
2023/06/22 09:28:10;;;;;;;8.07;6.95;;;;;;;26.02;66.39;100427.66;5073324;28;20067;-80
2023/06/22 09:31:13;;;;;;;8.15;7.35;;;;;;;26.22;64.68;100426.09;5073346;28;20047;-78
2023/06/22 09:34:20;;;;;;;9.23;8.32;;;;;;;26.26;64.08;100431.91;5073008;28;20048;-75
2023/06/22 09:37:23;;;;;;;10.98;7.68;;;;;;;26.24;63.93;100429.44;5072845;28;20178;-78
2023/06/22 09:40:26;;;;;;;8.20;7.32;;;;;;;26.38;63.84;100414.34;5072963;28;20079;-77
2023/06/22 09:43:32;;;;;;;8.63;6.88;;;;;;;26.38;63.29;100403.63;5072952;28;20512;-76
2023/06/22 09:46:35;;;;;;;8.38;7.00;;;;;;;26.42;64.13;100400.41;5071170;28;20094;-77
2023/06/22 09:49:39;;;;;;;9.13;7.25;;;;;;;26.50;63.46;100399.50;5071891;28;20043;-78
2023/06/22 09:52:44;;;;;;;7.30;6.55;;;;;;;26.56;63.63;100387.19;5071736;28;20051;-79
2023/06/22 09:55:48;;;;;;;8.55;6.65;;;;;;;26.67;62.29;100376.81;5071895;28;20079;-77
2023/06/22 09:58:52;;;;;;;7.22;6.53;;;;;;;26.63;62.02;100378.19;5071966;28;20136;-77
2023/06/22 10:01:55;;;;;;;8.18;6.90;;;;;;;26.63;61.45;100367.47;5072886;28;20059;-77
2023/06/22 10:04:59;;;;;;;8.90;7.18;;;;;;;26.66;61.22;100359.03;5072598;28;20043;-77
2023/06/22 10:08:02;;;;;;;10.02;6.63;;;;;;;26.83;60.56;100356.13;5072411;28;20131;-76
2023/06/22 10:11:06;;;;;;;8.02;6.50;;;;;;;26.96;61.50;100361.63;5072276;28;20170;-76
2023/06/22 10:14:10;;;;;;;10.10;6.78;;;;;;;27.00;60.78;100352.19;5072252;28;20090;-77
2023/06/22 10:17:14;;;;;;;7.95;6.85;;;;;;;27.00;60.10;100340.63;5072615;28;20106;-76
2023/06/22 10:20:18;;;;;;;11.65;6.32;;;;;;;27.13;60.52;100338.06;5072658;28;20051;-76
2023/06/22 10:23:22;;;;;;;9.02;6.85;;;;;;;27.28;59.06;100338.84;5072367;28;20043;-77
2023/06/22 10:26:28;;;;;;;10.18;6.60;;;;;;;27.31;57.66;100334.94;5072432;28;20042;-76
2023/06/22 10:29:32;;;;;;;8.75;7.13;;;;;;;27.35;58.00;100336.22;5072147;28;20039;-77
2023/06/22 10:32:36;;;;;;;16.15;6.32;;;;;;;27.34;57.30;100350.66;5072421;28;20051;-76
2023/06/22 10:35:40;;;;;;;7.63;6.65;;;;;;;27.45;56.59;100339.41;5072315;28;20405;-77
2023/06/22 10:38:43;;;;;;;9.07;6.43;;;;;;;27.37;56.34;100352.94;5072044;28;20596;-77
2023/06/22 10:41:47;;;;;;;8.40;6.03;;;;;;;27.33;55.08;100354.38;5072128;28;20401;-76
2023/06/22 10:44:52;;;;;;;7.72;5.68;;;;;;;27.32;55.65;100361.59;5072418;28;20508;-81
2023/06/22 10:47:55;;;;;;;6.60;5.47;;;;;;;27.33;55.76;100365.09;5072312;28;20079;-79
2023/06/22 10:50:59;;;;;;;9.57;5.82;;;;;;;27.46;54.42;100349.09;5072257;28;20098;-79
2023/06/22 10:54:04;;;;;;;11.57;6.07;;;;;;;27.49;56.16;100348.72;5072211;28;20151;-79
2023/06/22 10:57:07;;;;;;;7.57;6.07;;;;;;;27.56;56.23;100360.31;5071565;28;20055;-79
2023/06/22 11:00:12;;;;;;;9.30;5.40;;;;;;;27.58;54.86;100346.72;5072014;28;20098;-80
2023/06/22 11:03:22;;;;;;;7.50;5.78;;;;;;;27.67;54.17;100342.88;5071650;28;20083;-79
2023/06/22 11:06:26;;;;;;;6.43;5.57;;;;;;;27.71;51.84;100340.59;5076036;28;20062;-79
2023/06/22 11:09:31;;;;;;;7.18;5.75;;;;;;;27.82;53.25;100340.06;5075729;28;20039;-79
2023/06/22 11:12:35;;;;;;;8.60;5.30;;;;;;;27.84;51.61;100324.59;5076114;28;20075;-79
2023/06/22 11:15:39;;;;;;;6.93;5.47;;;;;;;27.88;52.21;100325.84;5075665;28;20123;-79
2023/06/22 11:18:43;;;;;;;6.13;5.53;;;;;;;27.86;51.50;100321.72;5075677;28;20166;-80
2023/06/22 11:21:46;;;;;;;6.40;5.32;;;;;;;27.83;50.96;100306.81;5075683;28;20038;-81
2023/06/22 11:24:50;;;;;;;8.50;5.68;;;;;;;27.85;50.11;100294.00;5075468;28;20055;-79
2023/06/22 11:27:53;;;;;;;8.93;5.70;;;;;;;27.81;50.40;100290.88;5075489;28;20457;-80
2023/06/22 11:30:56;;;;;;;9.20;6.00;;;;;;;27.97;50.46;100292.41;5075578;28;20067;-82
2023/06/22 11:34:00;;;;;;;7.30;5.78;;;;;;;28.10;49.64;100294.34;5075412;28;20043;-77
2023/06/22 11:37:04;;;;;;;6.50;5.60;;;;;;;28.19;50.60;100289.63;5075101;28;20043;-78
2023/06/22 11:40:09;;;;;;;6.78;5.55;;;;;;;28.42;50.32;100279.38;5075250;28;20071;-82
2023/06/22 11:43:14;;;;;;;7.65;5.65;;;;;;;28.74;50.18;100283.16;5075628;28;20063;-78
2023/06/22 11:46:18;;;;;;;8.30;6.10;;;;;;;28.64;48.77;100288.13;5075466;28;20051;-77
2023/06/22 11:49:22;;;;;;;7.15;5.47;;;;;;;28.59;48.40;100279.00;5074340;28;20047;-77
2023/06/22 11:52:27;;;;;;;6.72;5.75;;;;;;;28.41;48.53;100274.22;5075235;28;20051;-79
2023/06/22 11:55:31;;;;;;;10.13;6.22;;;;;;;28.71;48.49;100270.13;5075180;28;20102;-84
2023/06/22 11:58:33;;;;;;;10.57;5.93;;;;;;;28.77;49.71;100265.78;5074967;28;20106;-79
2023/06/22 12:01:36;;;;;;;7.63;6.07;;;;;;;28.84;49.12;100260.41;5074990;28;20043;-83
2023/06/22 12:04:40;;;;;;;9.30;5.88;;;;;;;28.92;48.92;100255.66;5074954;28;20063;-79
2023/06/22 12:07:43;;;;;;;7.20;5.75;;;;;;;28.87;50.37;100241.97;5075013;28;20401;-81
2023/06/22 12:10:47;;;;;;;10.73;6.25;;;;;;;29.00;48.11;100234.94;5074974;28;20512;-80
2023/06/22 12:13:50;;;;;;;10.20;6.22;;;;;;;29.09;47.92;100233.75;5074737;28;20047;-83
2023/06/22 12:16:57;;;;;;;8.93;6.43;;;;;;;29.04;47.11;100228.16;5073367;28;20066;-85
2023/06/22 12:20:04;;;;;;;10.15;6.38;;;;;;;29.28;47.12;100224.81;5074732;28;20085;-79
2023/06/22 12:23:07;;;;;;;9.48;6.25;;;;;;;29.28;47.14;100213.22;5074587;28;20038;-76
2023/06/22 12:26:10;;;;;;;12.23;7.32;;;;;;;29.25;47.33;100208.25;5074603;28;20048;-83
2023/06/22 12:29:18;;;;;;;11.05;6.75;;;;;;;29.51;47.32;100205.47;5074437;28;20040;-80
2023/06/22 12:32:27;;;;;;;9.23;7.03;;;;;;;29.79;46.75;100193.59;5073804;28;20047;-76
2023/06/22 12:35:29;;;;;;;11.05;6.20;;;;;;;29.83;46.81;100189.44;5074177;28;20174;-79
2023/06/22 12:38:33;;;;;;;13.90;6.85;;;;;;;29.87;46.11;100183.41;5074041;28;20044;-78
2023/06/22 12:41:37;;;;;;;8.70;6.00;;;;;;;29.98;46.68;100181.06;5074339;28;20517;-77
2023/06/22 12:44:41;;;;;;;10.57;6.70;;;;;;;30.22;46.08;100177.66;5074325;28;20051;-79
2023/06/22 12:48:09;;;;;;;9.48;6.28;;;;;;;30.17;46.33;100169.34;5074047;28;20124;-88
2023/06/22 12:51:21;;;;;;;9.85;6.90;;;;;;;30.24;46.30;100174.72;5073388;28;20047;-83
2023/06/22 12:54:26;;;;;;;8.65;6.90;;;;;;;30.19;46.60;100161.03;5074182;28;20047;-86
2023/06/22 12:57:29;;;;;;;11.13;6.32;;;;;;;30.46;46.27;100153.59;5073788;28;20090;-83
2023/06/22 13:00:32;;;;;;;15.27;7.63;;;;;;;30.80;45.82;100149.63;5073385;28;20162;-82
2023/06/22 13:03:35;;;;;;;10.43;6.68;;;;;;;30.88;45.57;100145.78;5073961;28;20410;-77
2023/06/22 13:06:39;;;;;;;8.27;6.57;;;;;;;30.74;44.50;100132.41;5073599;28;20039;-83
2023/06/22 13:09:45;;;;;;;9.52;6.75;;;;;;;30.81;45.06;100125.09;5073310;28;20111;-80
2023/06/22 13:12:48;;;;;;;12.00;7.25;;;;;;;30.72;44.53;100099.41;5073442;28;20044;-79
2023/06/22 13:15:53;;;;;;;10.50;7.40;;;;;;;30.74;46.37;100091.09;5073658;28;20555;-77
2023/06/22 13:18:56;;;;;;;10.65;6.88;;;;;;;30.81;45.84;100084.59;5073523;28;20036;-86
2023/06/22 13:22:00;;;;;;;9.40;6.93;;;;;;;30.81;44.94;100079.19;5073602;28;20051;-82
2023/06/22 13:29:18;;;;;;;10.57;6.55;;;;;;;30.23;46.76;100063.34;5072068;28;20048;-75
2023/06/22 13:32:27;;;;;;;13.73;7.47;;;;;;;30.17;46.70;100064.19;5073222;28;20063;-76
2023/06/22 13:35:30;;;;;;;11.68;6.63;;;;;;;30.55;46.78;100057.88;5073371;28;20097;-76
2023/06/22 13:38:38;;;;;;;11.30;6.65;;;;;;;30.85;45.22;100046.38;5071511;28;20144;-75
2023/06/22 13:41:44;;;;;;;10.60;7.28;;;;;;;31.12;44.68;100009.09;5071740;28;20128;-76
2023/06/22 13:44:47;;;;;;;10.95;6.60;;;;;;;31.12;44.75;100007.22;5072910;28;20039;-77
2023/06/22 13:47:50;;;;;;;17.48;7.38;;;;;;;30.90;45.86;100014.97;5072776;28;20062;-77
2023/06/22 13:50:54;;;;;;;8.68;7.13;;;;;;;31.09;45.47;99996.88;5072656;28;20448;-76
2023/06/22 13:53:58;;;;;;;9.20;6.03;;;;;;;31.22;44.66;99971.56;5072676;28;20150;-76
2023/06/22 13:57:02;;;;;;;12.93;6.97;;;;;;;30.81;45.32;99955.03;5072953;28;20063;-75
2023/06/22 14:00:08;;;;;;;11.00;6.40;;;;;;;30.40;46.08;99958.41;5072531;28;20040;-75
2023/06/22 14:03:18;;;;;;;13.10;6.40;;;;;;;30.13;46.31;99958.66;5072530;28;20050;-76
2023/06/22 14:06:21;;;;;;;9.68;6.82;;;;;;;29.98;46.76;99951.94;5072507;28;20517;-75
2023/06/22 14:09:25;;;;;;;16.38;7.03;;;;;;;29.57;48.00;99959.47;5072425;28;20094;-75
2023/06/22 14:12:29;;;;;;;13.13;6.00;;;;;;;29.47;49.11;99986.06;5071559;28;20044;-75
2023/06/22 14:15:33;;;;;;;16.55;6.65;;;;;;;29.17;50.25;100021.66;5072376;28;20040;-76
2023/06/22 14:18:36;;;;;;;30.95;8.30;;;;;;;27.48;59.64;100040.94;5072583;28;20047;-77
2023/06/22 14:21:41;;;;;;;23.35;8.90;;;;;;;26.89;64.86;100076.34;5072371;28;20123;-77
2023/06/22 14:24:47;;;;;;;24.58;9.93;;;;;;;26.92;68.71;100073.28;5072370;28;20089;-74